Flight Track Log - Related Links

Times and Time Zones

All times are in EDT time to prevent confusion due to time zone crossing. See the N1944E flight status page for this flight to view local times or setup timezone preferences in your user account.

Time Position Orientation Groundspeed Altitude Reporting Facility
EDT Latitude Longitude Course Direction KTS MPH feet Rate Location/Type
Fri 07:31:50 AM 44.6156 -108.9575 13° North 130 150 8,100  Level Salt Lake Center
Fri 07:32:50 AM 44.6542 -108.9414 17° North 135 155 9,100 950 Climbing Salt Lake Center
Fri 07:33:50 AM 44.6942 -108.9303 11° North 141 162 10,000 950 Climbing Salt Lake Center
Fri 07:34:50 AM 44.7339 -108.9169 13° North 143 165 11,000 1,140 Climbing Salt Lake Center
Fri 07:35:51 AM 44.7731 -108.9017 15° North 146 168 12,300 1,041 Climbing Salt Lake Center
Fri 07:36:51 AM 44.8075 -108.8917 12° North 139 160 13,100 400 Climbing Salt Lake Center
Fri 07:37:00 AM 44.7865 -108.9262 13° North  Level Estimated
Fri 07:37:51 AM 44.8469 -108.8828 North 137 158 13,100  Level Salt Lake Center
Fri 07:38:51 AM 44.8919 -108.8667 14° North 149 171 13,100  Level Salt Lake Center
Fri 07:39:51 AM 44.9356 -108.8508 14° North 156 180 13,100  Level Salt Lake Center
Fri 07:40:52 AM 44.9778 -108.8353 15° North 158 182 13,100  Level Salt Lake Center
Fri 07:41:52 AM 45.0200 -108.8206 14° North 157 181 13,100  Level Salt Lake Center
Fri 07:42:52 AM 45.0617 -108.8039 16° North 157 181 13,100  Level Salt Lake Center
Fri 07:43:52 AM 45.1033 -108.7897 13° North 155 178 13,100 -50 Level Salt Lake Center
Fri 07:44:52 AM 45.1442 -108.7781 11° North 153 176 13,000 -446 Descending Salt Lake Center
Fri 07:45:53 AM 45.1942 -108.7592 15° North 173 199 12,200 -744 Descending Salt Lake Center
Fri 07:46:53 AM 45.2408 -108.7428 14° North 176 203 11,500 -800 Descending Salt Lake Center
Fri 07:47:53 AM 45.2917 -108.7242 14° North 189 217 10,600 -750 Descending Salt Lake Center
Fri 07:48:53 AM 45.3403 -108.7069 14° North 183 211 10,000 -300 Descending Salt Lake Center
Fri 07:49:53 AM 45.3872 -108.6917 13° North 176 203 10,000 -298 Level Salt Lake Center
Fri 07:50:54 AM 45.4350 -108.6747 14° North 178 205 9,400 -595 Descending Salt Lake Center
Fri 07:51:54 AM 45.4875 -108.6556 14° North 183 211 8,800 -700 Descending Salt Lake Center
Fri 07:52:54 AM 45.5383 -108.6378 14° North 188 216 8,000 -750 Descending Salt Lake Center
Fri 07:53:54 AM 45.5867 -108.6208 14° North 182 209 7,300 -650 Descending Salt Lake Center
Fri 07:54:54 AM 45.6328 -108.6033 15° North 175 201 6,700 -645 Descending Salt Lake Center
Fri 07:55:55 AM 45.6761 -108.5675 30° Northeast 180 207 6,000 -843 Descending Salt Lake Center
Fri 07:56:55 AM 45.7186 -108.5319 30° Northeast 179 206 5,000 -550 Descending Salt Lake Center
Fri 07:57:55 AM 45.7564 -108.5042 27° Northeast 141 162 4,900 -450 Descending Salt Lake Center
Fri 07:58:55 AM 45.7903 -108.4933 13° North 126 145 4,100 -650 Descending Salt Lake Center
Fri 07:59:55 AM 45.8044 -108.5253 302° West 98 113 3,600 -500 Descending Salt Lake Center
Fri 08:01:00 AM 45.8077 -108.5429 232° Southwest  Level Estimated
Fri 08:08:00 AM 45.8077 -108.5429 19° North  Level Estimated

Login

Don't have an account? Register now (free) for customized features, flight alerts, and more!